Eurodam — PHOS — position and weather

sailwx.info

Track history (hours):
 
Tides and Currents Weather Stations Pressure Air Temp Water Temp Dewpoint Dewpoint Depression Visibility Wind Speed Wind Dir Waves Ship Positions

Eurodam (Netherlands)

Last reported at 2014-Jul-31 02:13 UTC. Time now 2014-Jul-31 03:17 UTC.
Position N 59°57' E 030°11'.

Length 285 m; draft 8 m.

Type: Passenger vessel. MMSI: 245206000.

Date/timePositionNaut miles runAvg speedWind from/ knotsBaromVisibWave heightAir tempDewpointWater temp
2014-Jul-31 02:13N 59°57' E 030°11'0 0.0
2014-Jul-30 23:18N 59°57' E 030°11'0 0.0
2014-Jul-30 22:28N 59°57' E 030°11'0 0.0
2014-Jul-30 20:30N 59°57' E 030°11'0 0.0
2014-Jul-30 19:03N 59°57' E 030°11'0 0.0
2014-Jul-30 18:30N 59°57' E 030°11'0 0.0
2014-Jul-30 08:25N 59°57' E 030°11'0 0.0
2014-Jul-30 07:25N 59°57' E 030°11'0 0.0
2014-Jul-30 06:23N 59°57' E 030°11'0 0.0
2014-Jul-30 05:32N 59°57' E 030°11'0 0.0
2014-Jul-30 04:33N 59°57' E 030°11'0 0.0
2014-Jul-30 03:24N 59°57' E 030°11'0 0.1
2014-Jul-30 02:32N 59°57' E 030°11'7 6.9
2014-Jul-30 01:30N 59°56' E 029°57'7510.8
2014-Jul-29 18:32N 60°05' E 027°27'1211.5
2014-Jul-29 17:29N 59°59' E 027°07'1011.1
2014-Jul-29 16:33N 59°59' E 026°46'1111.3
2014-Jul-29 15:33N 59°57' E 026°24'1211.8
2014-Jul-29 14:33N 59°54' E 026°01'1211.5
2014-Jul-29 13:33N 59°51' E 025°39'1111.6
2014-Jul-29 12:33N 59°49' E 025°16'1211.6
2014-Jul-29 11:33N 59°46' E 024°54'1111.5
2014-Jul-29 10:33N 59°44' E 024°32'1211.7
2014-Jul-29 09:33N 59°41' E 024°09'1111.5
2014-Jul-29 08:33N 59°37' E 023°48'1211.4
2014-Jul-29 07:31N 59°33' E 023°26'1111.2
2014-Jul-29 06:31N 59°29' E 023°05'1111.2
2014-Jul-29 05:33N 59°26' E 022°45'1111.4
2014-Jul-29 04:33N 59°22' E 022°23'1511.2
2014-Jul-29 03:15N 59°22' E 021°55'811.1
2014-Jul-29 02:33N 59°23' E 021°40'1111.2
2014-Jul-29 01:33N 59°24' E 021°18'3511.1
2014-Jul-28 22:23N 59°29' E 020°09'2310.8
2014-Jul-28 20:18N 59°46' E 019°41'4411.4
2014-Jul-28 16:24N 59°25' E 018°24'4 5.2
2014-Jul-28 15:33N 59°22' E 018°18'6 0.9
2014-Jul-28 09:21N 59°21' E 018°07'0 0.0
2014-Jul-28 06:33N 59°21' E 018°07'0 0.0
2014-Jul-28 05:12N 59°21' E 018°07'0 0.0
2014-Jul-28 04:33N 59°21' E 018°07'0 0.0
2014-Jul-28 03:30N 59°21' E 018°07'0 0.0
2014-Jul-28 02:33N 59°21' E 018°07'0 0.0
2014-Jul-28 01:33N 59°21' E 018°07'0 0.0
2014-Jul-28 00:33N 59°21' E 018°07'0 0.0
2014-Jul-27 23:30N 59°21' E 018°07'0 0.0
2014-Jul-27 22:30N 59°21' E 018°07'0 0.0
2014-Jul-27 21:24N 59°21' E 018°07'0 0.0
2014-Jul-27 20:33N 59°21' E 018°07'0 0.0
2014-Jul-27 19:33N 59°21' E 018°07'0 0.0
2014-Jul-27 18:24N 59°21' E 018°07'0 0.0
2014-Jul-27 17:27N 59°21' E 018°07'0 0.0
2014-Jul-27 16:13N 59°21' E 018°07'0 0.0
2014-Jul-27 15:28N 59°21' E 018°07'0 0.0
2014-Jul-27 14:31N 59°21' E 018°07'0 0.0
2014-Jul-27 13:33N 59°21' E 018°07'0 0.0
2014-Jul-27 12:30N 59°21' E 018°07'0 0.0
2014-Jul-27 11:33N 59°21' E 018°07'0 0.0
2014-Jul-27 10:21N 59°21' E 018°07'0 0.0
2014-Jul-27 09:21N 59°21' E 018°07'0 0.0
2014-Jul-27 08:30N 59°21' E 018°07'0 0.0
2014-Jul-27 07:33N 59°21' E 018°07'0 0.0
2014-Jul-27 06:33N 59°21' E 018°07'0 0.0
2014-Jul-27 05:27N 59°21' E 018°07'4 4.4
2014-Jul-27 04:31N 59°21' E 018°15'6 6.1
2014-Jul-27 03:32N 59°25' E 018°24'11 9.9
2014-Jul-27 02:23N 59°34' E 018°38'1011.6
2014-Jul-27 01:30N 59°39' E 018°55'1516.3
2014-Jul-27 00:34N 59°46' E 019°23'1312.6
2014-Jul-26 23:32N 59°46' E 019°48'1717.3
2014-Jul-26 22:34N 59°37' E 020°15'1817.8
2014-Jul-26 21:33N 59°34' E 020°51'1818.1
2014-Jul-26 20:33N 59°30' E 021°25'1818.1
2014-Jul-26 19:33N 59°28' E 022°01'1817.6
2014-Jul-26 18:33N 59°32' E 022°34'1818.5
2014-Jul-26 17:34N 59°38' E 023°09'1818.5
2014-Jul-26 16:33N 59°43' E 023°44'1918.6
2014-Jul-26 15:33N 59°49' E 024°19'1818.1
2014-Jul-26 14:33N 59°58' E 024°51'11 3.3
2014-Jul-26 11:12N 60°09' E 024°55'0 0.0
2014-Jul-26 10:33N 60°09' E 024°55'0 0.0
2014-Jul-26 07:21N 60°09' E 024°55'0 0.0
2014-Jul-26 06:31N 60°09' E 024°55'0 0.0
2014-Jul-26 05:31N 60°09' E 024°55'0 0.0
2014-Jul-26 04:32N 60°09' E 024°55'0 0.0
2014-Jul-26 03:33N 60°09' E 024°55'1 1.3
2014-Jul-26 02:33N 60°08' E 024°54'1111.4
2014-Jul-26 01:34N 59°57' E 025°00'7 6.6
2014-Jul-26 00:33N 59°53' E 025°11'8 8.4
2014-Jul-25 23:34N 59°55' E 025°27'4 3.6
2014-Jul-25 22:33N 59°51' E 025°28'8 7.7
2014-Jul-25 21:33N 59°49' E 025°13'7 6.9
2014-Jul-25 20:33N 59°47' E 025°00'6 6.4
2014-Jul-25 19:33N 59°43' E 024°49'7 6.5
2014-Jul-25 18:33N 59°38' E 024°42'11 1.6
2014-Jul-25 11:19N 59°27' E 024°46'0 0.0
2014-Jul-25 10:31N 59°27' E 024°46'3 1.0
2014-Jul-25 07:33N 59°30' E 024°44'1413.9
2014-Jul-25 06:33N 59°29' E 024°17'1818.1
2014-Jul-25 05:33N 59°26' E 023°42'1818.5
2014-Jul-25 04:34N 59°21' E 023°07'1918.7
2014-Jul-25 03:33N 59°16' E 022°31'1818.3
2014-Jul-25 02:33N 59°08' E 021°59'1818.4
2014-Jul-25 01:33N 58°55' E 021°34'1730.7
2014-Jul-25 01:00N 58°42' E 021°12'1 3.4 060 / 81021.010.8 0.522.020.122.0
2014-Jul-25 00:33N 58°41' E 021°12'1717.3
2014-Jul-24 23:33N 58°27' E 020°52'1716.9
2014-Jul-24 22:33N 58°13' E 020°33'1716.6
2014-Jul-24 21:33N 58°00' E 020°14'1716.8
2014-Jul-24 20:33N 57°47' E 019°55'1716.9
2014-Jul-24 19:33N 57°33' E 019°36'1716.6
2014-Jul-24 18:33N 57°20' E 019°18'1817.6
2014-Jul-24 17:33N 57°06' E 018°58'1817.7
2014-Jul-24 16:33N 56°52' E 018°37'1817.7
2014-Jul-24 15:33N 56°40' E 018°13'1817.9
2014-Jul-24 14:34N 56°29' E 017°48'1817.7
2014-Jul-24 13:34N 56°18' E 017°23'1817.7
2014-Jul-24 12:32N 56°07' E 016°58'1717.7
2014-Jul-24 11:33N 55°57' E 016°32'1817.7
2014-Jul-24 10:33N 55°48' E 016°04'1817.6
2014-Jul-24 09:33N 55°40' E 015°37'1717.4
2014-Jul-24 08:33N 55°32' E 015°10'1817.7
2014-Jul-24 07:33N 55°24' E 014°42'1817.7
2014-Jul-24 06:33N 55°10' E 014°22'1717.0
2014-Jul-24 05:33N 54°59' E 013°60'1817.9
2014-Jul-24 04:33N 54°53' E 013°30'1817.7
2014-Jul-24 03:33N 54°48' E 013°01'1817.8
2014-Jul-24 02:33N 54°41' E 012°32'1616.5
2014-Jul-24 01:33N 54°28' E 012°15'1514.6
2014-Jul-24 00:33N 54°15' E 012°04'4 4.0
2014-Jul-23 23:28N 54°11' E 012°06'0 0.0
2014-Jul-23 22:31N 54°11' E 012°06'0 0.0
2014-Jul-23 21:31N 54°11' E 012°06'0 0.0
2014-Jul-23 20:31N 54°11' E 012°06'0 0.0
2014-Jul-23 19:31N 54°11' E 012°06'0 0.0
2014-Jul-23 18:31N 54°11' E 012°06'0 0.0
2014-Jul-23 17:31N 54°11' E 012°06'0 0.0
2014-Jul-23 16:32N 54°11' E 012°06'0 0.0
2014-Jul-23 15:31N 54°11' E 012°06'0 0.0
2014-Jul-23 14:31N 54°11' E 012°06'0 0.0
2014-Jul-23 13:31N 54°11' E 012°06'0 0.0
2014-Jul-23 12:31N 54°11' E 012°06'0 0.0
2014-Jul-23 11:31N 54°11' E 012°06'0 0.0
2014-Jul-23 10:31N 54°11' E 012°06'0 0.0
2014-Jul-23 09:31N 54°11' E 012°06'0 0.0
2014-Jul-23 08:31N 54°11' E 012°06'0 0.0
2014-Jul-23 07:31N 54°11' E 012°06'0 0.0
2014-Jul-23 06:33N 54°11' E 012°06'1 1.2
2014-Jul-23 05:33N 54°09' E 012°06'1111.1
2014-Jul-23 04:33N 54°19' E 011°57'1716.8
2014-Jul-23 03:33N 54°28' E 011°33'1716.6
2014-Jul-23 02:33N 54°36' E 011°07'1515.0
2014-Jul-23 01:33N 54°48' E 010°51'1616.5
2014-Jul-23 00:33N 55°03' E 011°01'1916.2
2014-Jul-22 23:24N 55°22' E 011°02'1616.8
2014-Jul-22 22:27N 55°36' E 010°48'1617.3
2014-Jul-22 21:30N 55°52' E 010°52'1516.3
2014-Jul-22 20:33N 56°05' E 011°07'1717.0
2014-Jul-22 19:33N 56°19' E 011°24'1717.5
2014-Jul-22 18:34N 56°34' E 011°40'1616.3
2014-Jul-22 17:33N 56°50' E 011°48'1717.4
2014-Jul-22 16:33N 57°06' E 011°37'1717.1
2014-Jul-22 15:33N 57°23' E 011°31'1515.0
2014-Jul-22 14:33N 57°37' E 011°40'7 7.3
2014-Jul-22 13:33N 57°42' E 011°51'0 0.0
2014-Jul-22 12:33N 57°42' E 011°51'0 0.0
2014-Jul-22 11:33N 57°42' E 011°51'0 0.0
2014-Jul-22 10:32N 57°42' E 011°51'0 0.0
2014-Jul-22 09:32N 57°42' E 011°51'0 0.2
2014-Jul-22 09:10N 57°42' E 011°51'0 0.1
2014-Jul-22 08:32N 57°42' E 011°51'0 0.0
2014-Jul-22 07:32N 57°42' E 011°51'0 0.0
2014-Jul-22 06:32N 57°42' E 011°51'1 1.2
2014-Jul-22 05:33N 57°41' E 011°49'9 9.3
2014-Jul-22 04:33N 57°36' E 011°34'1312.9
2014-Jul-22 03:33N 57°47' E 011°19'1414.1
2014-Jul-22 02:33N 57°60' E 011°10'1414.3
2014-Jul-22 01:33N 58°13' E 010°59'1414.3
2014-Jul-22 00:33N 58°26' E 010°49'1413.8
2014-Jul-21 23:33N 58°39' E 010°39'1413.8
2014-Jul-21 22:33N 58°52' E 010°29'1413.8
2014-Jul-21 21:33N 59°05' E 010°34'1515.3
2014-Jul-21 20:33N 59°21' E 010°35'518.0
2014-Jul-21 20:18N 59°25' E 010°33'1316.9
2014-Jul-21 19:33N 59°38' E 010°37'1313.1
2014-Jul-21 18:32N 59°51' E 010°36'5 5.3
2014-Jul-21 17:31N 59°54' E 010°44'0 0.0
2014-Jul-21 16:16N 59°54' E 010°44'0 0.0
2014-Jul-21 15:19N 59°54' E 010°44'0 0.0
2014-Jul-21 14:22N 59°54' E 010°44'0 0.0
2014-Jul-21 13:22N 59°54' E 010°44'0 0.0
2014-Jul-21 12:22N 59°54' E 010°44'0 0.0
2014-Jul-21 11:25N 59°54' E 010°44'0 0.0
2014-Jul-21 10:25N 59°54' E 010°44'0 0.0
2014-Jul-21 09:25N 59°54' E 010°44'0 0.0
2014-Jul-21 08:28N 59°54' E 010°44'0 0.0
2014-Jul-21 07:28N 59°54' E 010°44'0 0.0
2014-Jul-21 06:29N 59°54' E 010°44'0 0.3
2014-Jul-21 05:33N 59°54' E 010°44'1211.2
2014-Jul-21 04:32N 59°44' E 010°35'1313.8
2014-Jul-21 03:33N 59°30' E 010°35'1918.9
2014-Jul-21 02:33N 59°11' E 010°39'  
Track history (hours):
 
Tides and Currents Weather Stations Pressure Air Temp Water Temp Dewpoint Dewpoint Depression Visibility Wind Speed Wind Dir Waves Ship Positions

Eurodam (Netherlands)

Last reported at 2014-Jul-31 02:13 UTC. Time now 2014-Jul-31 03:17 UTC.
Position N 59°57' E 030°11'.

Length 285 m; draft 8 m.

Type: Passenger vessel. MMSI: 245206000.

Date/timePositionNaut miles runAvg speedWind from/ knotsBaromVisibWave heightAir tempDewpointWater temp
2014-Jul-31 02:13N 59°57' E 030°11'0 0.0
2014-Jul-30 23:18N 59°57' E 030°11'0 0.0
2014-Jul-30 22:28N 59°57' E 030°11'0 0.0
2014-Jul-30 20:30N 59°57' E 030°11'0 0.0
2014-Jul-30 19:03N 59°57' E 030°11'0 0.0
2014-Jul-30 18:30N 59°57' E 030°11'0 0.0
2014-Jul-30 08:25N 59°57' E 030°11'0 0.0
2014-Jul-30 07:25N 59°57' E 030°11'0 0.0
2014-Jul-30 06:23N 59°57' E 030°11'0 0.0
2014-Jul-30 05:32N 59°57' E 030°11'0 0.0
2014-Jul-30 04:33N 59°57' E 030°11'0 0.0
2014-Jul-30 03:24N 59°57' E 030°11'0 0.1
2014-Jul-30 02:32N 59°57' E 030°11'7 6.9
2014-Jul-30 01:30N 59°56' E 029°57'7510.8
2014-Jul-29 18:32N 60°05' E 027°27'1211.5
2014-Jul-29 17:29N 59°59' E 027°07'1011.1
2014-Jul-29 16:33N 59°59' E 026°46'1111.3
2014-Jul-29 15:33N 59°57' E 026°24'1211.8
2014-Jul-29 14:33N 59°54' E 026°01'1211.5
2014-Jul-29 13:33N 59°51' E 025°39'1111.6
2014-Jul-29 12:33N 59°49' E 025°16'1211.6
2014-Jul-29 11:33N 59°46' E 024°54'1111.5
2014-Jul-29 10:33N 59°44' E 024°32'1211.7
2014-Jul-29 09:33N 59°41' E 024°09'1111.5
2014-Jul-29 08:33N 59°37' E 023°48'1211.4
2014-Jul-29 07:31N 59°33' E 023°26'1111.2
2014-Jul-29 06:31N 59°29' E 023°05'1111.2
2014-Jul-29 05:33N 59°26' E 022°45'1111.4
2014-Jul-29 04:33N 59°22' E 022°23'1511.2
2014-Jul-29 03:15N 59°22' E 021°55'811.1
2014-Jul-29 02:33N 59°23' E 021°40'1111.2
2014-Jul-29 01:33N 59°24' E 021°18'3511.1
2014-Jul-28 22:23N 59°29' E 020°09'2310.8
2014-Jul-28 20:18N 59°46' E 019°41'4411.4
2014-Jul-28 16:24N 59°25' E 018°24'4 5.2
2014-Jul-28 15:33N 59°22' E 018°18'6 0.9
2014-Jul-28 09:21N 59°21' E 018°07'0 0.0
2014-Jul-28 06:33N 59°21' E 018°07'0 0.0
2014-Jul-28 05:12N 59°21' E 018°07'0 0.0
2014-Jul-28 04:33N 59°21' E 018°07'0 0.0
2014-Jul-28 03:30N 59°21' E 018°07'0 0.0
2014-Jul-28 02:33N 59°21' E 018°07'0 0.0
2014-Jul-28 01:33N 59°21' E 018°07'0 0.0
2014-Jul-28 00:33N 59°21' E 018°07'0 0.0
2014-Jul-27 23:30N 59°21' E 018°07'0 0.0
2014-Jul-27 22:30N 59°21' E 018°07'0 0.0
2014-Jul-27 21:24N 59°21' E 018°07'0 0.0
2014-Jul-27 20:33N 59°21' E 018°07'0 0.0
2014-Jul-27 19:33N 59°21' E 018°07'0 0.0
2014-Jul-27 18:24N 59°21' E 018°07'0 0.0
2014-Jul-27 17:27N 59°21' E 018°07'0 0.0
2014-Jul-27 16:13N 59°21' E 018°07'0 0.0
2014-Jul-27 15:28N 59°21' E 018°07'0 0.0
2014-Jul-27 14:31N 59°21' E 018°07'0 0.0
2014-Jul-27 13:33N 59°21' E 018°07'0 0.0
2014-Jul-27 12:30N 59°21' E 018°07'0 0.0
2014-Jul-27 11:33N 59°21' E 018°07'0 0.0
2014-Jul-27 10:21N 59°21' E 018°07'0 0.0
2014-Jul-27 09:21N 59°21' E 018°07'0 0.0
2014-Jul-27 08:30N 59°21' E 018°07'0 0.0
2014-Jul-27 07:33N 59°21' E 018°07'0 0.0
2014-Jul-27 06:33N 59°21' E 018°07'0 0.0
2014-Jul-27 05:27N 59°21' E 018°07'4 4.4
2014-Jul-27 04:31N 59°21' E 018°15'6 6.1
2014-Jul-27 03:32N 59°25' E 018°24'11 9.9
2014-Jul-27 02:23N 59°34' E 018°38'1011.6
2014-Jul-27 01:30N 59°39' E 018°55'1516.3
2014-Jul-27 00:34N 59°46' E 019°23'1312.6
2014-Jul-26 23:32N 59°46' E 019°48'1717.3
2014-Jul-26 22:34N 59°37' E 020°15'1817.8
2014-Jul-26 21:33N 59°34' E 020°51'1818.1
2014-Jul-26 20:33N 59°30' E 021°25'1818.1
2014-Jul-26 19:33N 59°28' E 022°01'1817.6
2014-Jul-26 18:33N 59°32' E 022°34'1818.5
2014-Jul-26 17:34N 59°38' E 023°09'1818.5
2014-Jul-26 16:33N 59°43' E 023°44'1918.6
2014-Jul-26 15:33N 59°49' E 024°19'1818.1
2014-Jul-26 14:33N 59°58' E 024°51'11 3.3
2014-Jul-26 11:12N 60°09' E 024°55'0 0.0
2014-Jul-26 10:33N 60°09' E 024°55'0 0.0
2014-Jul-26 07:21N 60°09' E 024°55'0 0.0
2014-Jul-26 06:31N 60°09' E 024°55'0 0.0
2014-Jul-26 05:31N 60°09' E 024°55'0 0.0
2014-Jul-26 04:32N 60°09' E 024°55'0 0.0
2014-Jul-26 03:33N 60°09' E 024°55'1 1.3
2014-Jul-26 02:33N 60°08' E 024°54'1111.4
2014-Jul-26 01:34N 59°57' E 025°00'7 6.6
2014-Jul-26 00:33N 59°53' E 025°11'8 8.4
2014-Jul-25 23:34N 59°55' E 025°27'4 3.6
2014-Jul-25 22:33N 59°51' E 025°28'8 7.7
2014-Jul-25 21:33N 59°49' E 025°13'7 6.9
2014-Jul-25 20:33N 59°47' E 025°00'6 6.4
2014-Jul-25 19:33N 59°43' E 024°49'7 6.5
2014-Jul-25 18:33N 59°38' E 024°42'11 1.6
2014-Jul-25 11:19N 59°27' E 024°46'0 0.0
2014-Jul-25 10:31N 59°27' E 024°46'3 1.0
2014-Jul-25 07:33N 59°30' E 024°44'1413.9
2014-Jul-25 06:33N 59°29' E 024°17'1818.1
2014-Jul-25 05:33N 59°26' E 023°42'1818.5
2014-Jul-25 04:34N 59°21' E 023°07'1918.7
2014-Jul-25 03:33N 59°16' E 022°31'1818.3
2014-Jul-25 02:33N 59°08' E 021°59'1818.4
2014-Jul-25 01:33N 58°55' E 021°34'1730.7
2014-Jul-25 01:00N 58°42' E 021°12'1 3.4 060 / 81021.010.8 0.522.020.122.0
2014-Jul-25 00:33N 58°41' E 021°12'1717.3
2014-Jul-24 23:33N 58°27' E 020°52'1716.9
2014-Jul-24 22:33N 58°13' E 020°33'1716.6
2014-Jul-24 21:33N 58°00' E 020°14'1716.8
2014-Jul-24 20:33N 57°47' E 019°55'1716.9
2014-Jul-24 19:33N 57°33' E 019°36'1716.6
2014-Jul-24 18:33N 57°20' E 019°18'1817.6
2014-Jul-24 17:33N 57°06' E 018°58'1817.7
2014-Jul-24 16:33N 56°52' E 018°37'1817.7
2014-Jul-24 15:33N 56°40' E 018°13'1817.9
2014-Jul-24 14:34N 56°29' E 017°48'1817.7
2014-Jul-24 13:34N 56°18' E 017°23'1817.7
2014-Jul-24 12:32N 56°07' E 016°58'1717.7
2014-Jul-24 11:33N 55°57' E 016°32'1817.7
2014-Jul-24 10:33N 55°48' E 016°04'1817.6
2014-Jul-24 09:33N 55°40' E 015°37'1717.4
2014-Jul-24 08:33N 55°32' E 015°10'1817.7
2014-Jul-24 07:33N 55°24' E 014°42'1817.7
2014-Jul-24 06:33N 55°10' E 014°22'1717.0
2014-Jul-24 05:33N 54°59' E 013°60'1817.9
2014-Jul-24 04:33N 54°53' E 013°30'1817.7
2014-Jul-24 03:33N 54°48' E 013°01'1817.8
2014-Jul-24 02:33N 54°41' E 012°32'1616.5
2014-Jul-24 01:33N 54°28' E 012°15'1514.6
2014-Jul-24 00:33N 54°15' E 012°04'4 4.0
2014-Jul-23 23:28N 54°11' E 012°06'0 0.0
2014-Jul-23 22:31N 54°11' E 012°06'0 0.0
2014-Jul-23 21:31N 54°11' E 012°06'0 0.0
2014-Jul-23 20:31N 54°11' E 012°06'0 0.0
2014-Jul-23 19:31N 54°11' E 012°06'0 0.0
2014-Jul-23 18:31N 54°11' E 012°06'0 0.0
2014-Jul-23 17:31N 54°11' E 012°06'0 0.0
2014-Jul-23 16:32N 54°11' E 012°06'0 0.0
2014-Jul-23 15:31N 54°11' E 012°06'0 0.0
2014-Jul-23 14:31N 54°11' E 012°06'0 0.0
2014-Jul-23 13:31N 54°11' E 012°06'0 0.0
2014-Jul-23 12:31N 54°11' E 012°06'0 0.0
2014-Jul-23 11:31N 54°11' E 012°06'0 0.0
2014-Jul-23 10:31N 54°11' E 012°06'0 0.0
2014-Jul-23 09:31N 54°11' E 012°06'0 0.0
2014-Jul-23 08:31N 54°11' E 012°06'0 0.0
2014-Jul-23 07:31N 54°11' E 012°06'0 0.0
2014-Jul-23 06:33N 54°11' E 012°06'1 1.2
2014-Jul-23 05:33N 54°09' E 012°06'1111.1
2014-Jul-23 04:33N 54°19' E 011°57'1716.8
2014-Jul-23 03:33N 54°28' E 011°33'1716.6
2014-Jul-23 02:33N 54°36' E 011°07'1515.0
2014-Jul-23 01:33N 54°48' E 010°51'1616.5
2014-Jul-23 00:33N 55°03' E 011°01'1916.2
2014-Jul-22 23:24N 55°22' E 011°02'1616.8
2014-Jul-22 22:27N 55°36' E 010°48'1617.3
2014-Jul-22 21:30N 55°52' E 010°52'1516.3
2014-Jul-22 20:33N 56°05' E 011°07'1717.0
2014-Jul-22 19:33N 56°19' E 011°24'1717.5
2014-Jul-22 18:34N 56°34' E 011°40'1616.3
2014-Jul-22 17:33N 56°50' E 011°48'1717.4
2014-Jul-22 16:33N 57°06' E 011°37'1717.1
2014-Jul-22 15:33N 57°23' E 011°31'1515.0
2014-Jul-22 14:33N 57°37' E 011°40'7 7.3
2014-Jul-22 13:33N 57°42' E 011°51'0 0.0
2014-Jul-22 12:33N 57°42' E 011°51'0 0.0
2014-Jul-22 11:33N 57°42' E 011°51'0 0.0
2014-Jul-22 10:32N 57°42' E 011°51'0 0.0
2014-Jul-22 09:32N 57°42' E 011°51'0 0.2
2014-Jul-22 09:10N 57°42' E 011°51'0 0.1
2014-Jul-22 08:32N 57°42' E 011°51'0 0.0
2014-Jul-22 07:32N 57°42' E 011°51'0 0.0
2014-Jul-22 06:32N 57°42' E 011°51'1 1.2
2014-Jul-22 05:33N 57°41' E 011°49'9 9.3
2014-Jul-22 04:33N 57°36' E 011°34'1312.9
2014-Jul-22 03:33N 57°47' E 011°19'1414.1
2014-Jul-22 02:33N 57°60' E 011°10'1414.3
2014-Jul-22 01:33N 58°13' E 010°59'1414.3
2014-Jul-22 00:33N 58°26' E 010°49'1413.8
2014-Jul-21 23:33N 58°39' E 010°39'1413.8
2014-Jul-21 22:33N 58°52' E 010°29'1413.8
2014-Jul-21 21:33N 59°05' E 010°34'1515.3
2014-Jul-21 20:33N 59°21' E 010°35'518.0
2014-Jul-21 20:18N 59°25' E 010°33'1316.9
2014-Jul-21 19:33N 59°38' E 010°37'1313.1
2014-Jul-21 18:32N 59°51' E 010°36'5 5.3
2014-Jul-21 17:31N 59°54' E 010°44'0 0.0
2014-Jul-21 16:16N 59°54' E 010°44'0 0.0
2014-Jul-21 15:19N 59°54' E 010°44'0 0.0
2014-Jul-21 14:22N 59°54' E 010°44'0 0.0
2014-Jul-21 13:22N 59°54' E 010°44'0 0.0
2014-Jul-21 12:22N 59°54' E 010°44'0 0.0
2014-Jul-21 11:25N 59°54' E 010°44'0 0.0
2014-Jul-21 10:25N 59°54' E 010°44'0 0.0
2014-Jul-21 09:25N 59°54' E 010°44'0 0.0
2014-Jul-21 08:28N 59°54' E 010°44'0 0.0
2014-Jul-21 07:28N 59°54' E 010°44'0 0.0
2014-Jul-21 06:29N 59°54' E 010°44'0 0.3
2014-Jul-21 05:33N 59°54' E 010°44'1211.2
2014-Jul-21 04:32N 59°44' E 010°35'1313.8
2014-Jul-21 03:33N 59°30' E 010°35'1918.9
2014-Jul-21 02:33N 59°11' E 010°39'  

Dump ship's entire track history